Puerto Banus, Marbella

>

This is an optional block (switch it off / on) in the settings - file ($SITE['banners'] = false;)

You can display ads, any other important text or photo’s using text / html or PHP code.

You can place one or more at the top and or bottom and it can all be different for content / size .



Meteosat more information blitzortung!


Radar lluvias  rain snow radar


Visita nuestra red de sitios de meteo:

Documentation for the template used

MeteoibericaRed estaciones Meteorologicas

MeteoclimaticRed estaciones Meteorologicas



Sin Advertencias climatologicas .En este momento tenemos Nivel Verde.    No hay Alarmas

Informes METAR proximidad

   
EBAW - Antwerp
Actualización: 23-09-2018 13:50
lluvia, Parcialmente nublado  
lluvia, Parcialmente nublado  
   Viento: North 16.7 km/h
Viento: North 16.7 km/h
Temperatura: 11°C
Punto de rocío: 10°C
Humedad: 94%
Baromètro: 1010 hPa
Nublado: Parcialmente nublado
Visibilidad: 7 km
detalles de la nube: Parcialmente Nublado 400 ft,
Parcialmente nublado 700 ft
EBAW 231150Z 01009KT 340V040 7000 -RA SCT004 BKN007 11/10 Q1010 REDZ TEMPO 4500 RADZ BKN004
EBLG - Liège
Actualización: 23-09-2018 13:50
Luvia, Parcialmente nublado  
Luvia, Parcialmente nublado  
   Viento: NNW 25.9 km/h
Viento: NNW 25.9 km/h
Temperatura: 11°C
Punto de rocío: 11°C
Humedad: 100%
Baromètro: 1008 hPa
Nublado: Parcialmente nublado
Visibilidad: 2 km
detalles de la nube: Parcialmente nublado 300 ft,
Parcialmente nublado 500 ft
EBLG 231150Z 34014KT 2000 RA BKN003 BKN005 11/11 Q1008 TEMPO 1400 RA
EBCV - Mons/Bergen
Actualización: 20-09-2018 16:25
NO actual
Nubes dispersas  
Nubes dispersas  
   Viento: South 25.9 km/h
Viento: South 25.9 km/h
Temperatura: 24°C
Punto de rocío: 13°C
Humedad: 50%
Baromètro: 1014 hPa
Nublado: Nubes dispersas
Visibilidad: More than 10 km
detalles de la nube: Nubes dispersas 21000 ft
EBCV 201425Z AUTO 19014KT 9999 FEW210/// 24/13 Q1014 BLU
EHBK - Maastricht
Actualización: 23-09-2018 13:55
Luvia, Parcialmente nublado  
Luvia, Parcialmente nublado  
   Viento: North 25.9 km/h
Viento: North 25.9 km/h
Temperatura: 11°C
Punto de rocío: 11°C
Humedad: 100%
Baromètro: 1008 hPa
Nublado: Parcialmente nublado
Visibilidad: 4 km
detalles de la nube: Parcialmente Nublado 200 ft,
Parcialmente nublado 300 ft,
Parcialmente nublado 400 ft,
Parcialmente nublado 1500 ft
EHBK 231155Z AUTO 35014KT 320V030 4200 RA SCT002 BKN003 BKN004 BKN015CB 11/11 Q1008 RERA REDZ BECMG BKN004 TEMPO 2500 RA BKN002
ELLX - Luxemburg
Actualización: 23-09-2018 13:50
lluvia, Parcialmente Nublado  
lluvia, Parcialmente Nublado  
   Viento: SW 29.6 km/h<br />Gust to 29.6 km/h
Viento: SW 29.6 km/h
Gust to 29.6 km/h
Temperatura: 19°C
Punto de rocío: 18°C
Humedad: 94%
Baromètro: 1008 hPa
Nublado: Parcialmente Nublado
Visibilidad: More than 10 km
detalles de la nube: Parcialmente Nublado 700 ft
ELLX 231150Z 22016G26KT 190V260 9999 -RA SCT007 19/18 Q1008 TEMPO 23025G40KT 4000 +RA
EBOS - Oostende
Actualización: 23-09-2018 13:50
Light Showers, Luvia, Parcialmente nublado  
Light Showers, Luvia, Parcialmente nublado  
   Viento: NNE 18.5 km/h
Viento: NNE 18.5 km/h
Temperatura: 13°C
Punto de rocío: 11°C
Humedad: 88%
Baromètro: 1013 hPa
Nublado: Parcialmente nublado
Visibilidad: More than 10 km
detalles de la nube: Nubes dispersas 1000 ft,
Parcialmente Nublado 1300 ft,
Parcialmente nublado 3000 ft
EBOS 231150Z 02010KT 9999 -SHRA FEW010 SCT013 BKN030 13/11 Q1013 TEMPO 35020G30KT 4000 SHRA

Guión original por  Saratoga-weather.org Adaptado para la plantilla por  Weerstation Leuven

Usted encontrará nuestra información del tiempo también en:

Weather Underground

Iberian Peninsula Weather Network